Time;durP1;ratioP1;P1;durP2;ratioP2;P2;SDS_P1;SDS_P2;PMS_P1;PMS_P2;Temp;Humidity;BMP_temperature;BMP_pressure;BME280_temperature;BME280_humidity;BME280_pressure;Samples;Min_cycle;Max_cycle;Signal;HPM_P1;HPM_P2
2021/12/07 00:00:49;;;;;;;27.23;17.88;;;;;;;2.16;100.00;99487.88;5064111;28;20792;-58
2021/12/07 00:03:15;;;;;;;27.58;18.35;;;;;;;2.23;100.00;99491.97;5050508;28;20131;-58
2021/12/07 00:05:41;;;;;;;29.33;19.13;;;;;;;2.03;100.00;99457.16;5050651;28;20042;-58
2021/12/07 00:08:06;;;;;;;23.75;18.10;;;;;;;2.25;100.00;99488.44;5063371;28;20023;-58
2021/12/07 00:10:32;;;;;;;30.95;20.35;;;;;;;2.15;100.00;99484.44;5053990;28;20984;-58
2021/12/07 00:12:58;;;;;;;32.05;20.50;;;;;;;2.31;100.00;99508.13;5061805;28;20024;-57
2021/12/07 00:15:24;;;;;;;33.88;20.42;;;;;;;2.35;100.00;99526.13;5058094;28;20063;-58
2021/12/07 00:17:49;;;;;;;38.05;21.13;;;;;;;2.38;100.00;99522.59;5065348;28;20905;-58
2021/12/07 00:20:18;;;;;;;30.73;19.38;;;;;;;2.41;100.00;99522.47;5053650;28;20067;-58
2021/12/07 00:22:45;;;;;;;26.75;17.80;;;;;;;2.47;100.00;99540.44;5065027;28;20020;-58
2021/12/07 00:25:11;;;;;;;29.70;17.90;;;;;;;2.53;100.00;99543.69;5078649;28;20911;-58
2021/12/07 00:27:37;;;;;;;24.98;15.63;;;;;;;2.55;100.00;99543.66;5066624;28;20027;-58
2021/12/07 00:30:04;;;;;;;20.35;12.48;;;;;;;2.55;100.00;99560.06;5073685;28;20951;-58
2021/12/07 00:32:37;;;;;;;24.08;12.23;;;;;;;2.53;100.00;99551.44;5079609;28;20027;-58
2021/12/07 00:37:42;;;;;;;17.23;9.85;;;;;;;2.39;100.00;99542.44;5052698;28;20047;-58
2021/12/07 00:40:10;;;;;;;19.05;8.80;;;;;;;2.50;100.00;99556.75;5065607;28;20080;-58
2021/12/07 00:42:36;;;;;;;12.68;8.18;;;;;;;2.51;100.00;99565.38;5066155;28;20118;-58
2021/12/07 00:45:03;;;;;;;19.38;11.20;;;;;;;2.51;100.00;99561.03;5047583;28;20902;-58
2021/12/07 00:47:29;;;;;;;26.15;11.93;;;;;;;2.53;100.00;99561.00;5065394;28;20031;-58
2021/12/07 00:49:54;;;;;;;29.50;14.90;;;;;;;2.30;100.00;99516.81;5073353;28;20023;-59
2021/12/07 00:52:19;;;;;;;22.00;13.75;;;;;;;2.60;100.00;99554.72;5058326;28;20069;-57
2021/12/07 00:54:45;;;;;;;27.33;16.60;;;;;;;2.62;100.00;99563.28;5062996;28;20846;-58
2021/12/07 00:57:10;;;;;;;27.98;16.95;;;;;;;2.65;100.00;99558.00;5060670;28;20229;-58
2021/12/07 00:59:36;;;;;;;37.13;17.67;;;;;;;2.52;100.00;99542.00;5065585;28;20155;-57
2021/12/07 01:02:01;;;;;;;28.13;16.83;;;;;;;2.53;100.00;99553.22;5065345;28;20028;-58
2021/12/07 01:04:28;;;;;;;28.33;16.75;;;;;;;2.68;100.00;99562.25;5066766;28;20058;-58
2021/12/07 01:09:30;;;;;;;26.88;16.25;;;;;;;2.70;100.00;99587.25;5065512;28;20062;-59
2021/12/07 01:25:44;;;;;;;30.48;13.57;;;;;;;2.76;100.00;99613.00;5069027;28;20066;-59
2021/12/07 01:28:29;;;;;;;27.40;12.75;;;;;;;2.77;100.00;99624.22;5069789;28;20020;-59
2021/12/07 01:31:08;;;;;;;23.92;11.70;;;;;;;2.79;100.00;99628.44;5048350;28;20799;-59
2021/12/07 01:44:08;;;;;;;27.77;10.77;;;;;;;2.88;100.00;99643.72;5060063;28;20035;-58
2021/12/07 01:59:49;;;;;;;19.23;9.15;;;;;;;2.94;100.00;99668.66;5052608;28;20047;-58
2021/12/07 02:02:16;;;;;;;21.77;8.98;;;;;;;2.94;100.00;99681.63;5067964;28;20435;-58
2021/12/07 02:04:42;;;;;;;30.40;9.25;;;;;;;2.82;100.00;99679.38;5077366;27;20016;-58
2021/12/07 02:07:08;;;;;;;28.77;9.35;;;;;;;2.87;100.00;99682.69;5070503;27;20032;-58
2021/12/07 02:09:35;;;;;;;26.52;9.52;;;;;;;2.92;100.00;99705.00;5079955;27;20909;-58
2021/12/07 02:12:02;;;;;;;21.90;9.43;;;;;;;2.72;100.00;99668.44;5081197;27;20025;-58
2021/12/07 02:14:30;;;;;;;21.77;8.60;;;;;;;2.88;100.00;99690.41;5067867;28;20019;-58
2021/12/07 02:17:06;;;;;;;16.00;8.98;;;;;;;2.88;100.00;99695.59;5067653;28;20027;-58
2021/12/07 02:19:32;;;;;;;32.97;10.82;;;;;;;2.85;100.00;99700.88;5067689;28;20802;-58
2021/12/07 02:21:58;;;;;;;23.33;9.20;;;;;;;2.83;100.00;99696.66;5068532;28;20032;-58
2021/12/07 02:24:24;;;;;;;23.17;8.98;;;;;;;2.76;100.00;99700.31;5058362;28;20131;-58
2021/12/07 02:26:50;;;;;;;18.95;7.88;;;;;;;2.39;100.00;99661.66;5051378;28;20028;-58
2021/12/07 02:29:17;;;;;;;34.38;9.80;;;;;;;2.74;100.00;99713.31;5068474;27;20023;-58
2021/12/07 02:31:42;;;;;;;30.38;8.85;;;;;;;2.76;100.00;99718.47;5063354;28;20032;-58
2021/12/07 02:34:08;;;;;;;23.73;7.78;;;;;;;2.72;100.00;99714.28;5071826;27;20949;-58
2021/12/07 02:36:35;;;;;;;20.15;8.25;;;;;;;2.64;100.00;99714.47;5076482;27;20031;-58
2021/12/07 02:39:04;;;;;;;17.30;7.13;;;;;;;2.58;100.00;99719.84;5059088;28;20028;-58
2021/12/07 02:41:29;;;;;;;19.33;7.63;;;;;;;2.42;100.00;99705.63;5067758;28;20163;-58
2021/12/07 02:43:55;;;;;;;26.88;6.95;;;;;;;2.53;100.00;99734.72;5067467;27;20541;-58
2021/12/07 02:46:20;;;;;;;18.45;7.30;;;;;;;2.53;100.00;99739.91;5066862;28;20023;-57
2021/12/07 02:48:45;;;;;;;24.98;7.90;;;;;;;2.50;100.00;99725.25;5066910;28;20034;-58
2021/12/07 02:51:11;;;;;;;18.98;7.18;;;;;;;2.51;100.00;99739.06;5067461;28;20030;-58
2021/12/07 02:53:36;;;;;;;20.15;7.97;;;;;;;2.52;100.00;99751.16;5067356;27;20854;-58
2021/12/07 02:56:04;;;;;;;16.42;7.13;;;;;;;2.52;100.00;99740.78;5066801;28;20030;-58
2021/12/07 02:58:30;;;;;;;17.40;7.00;;;;;;;2.48;100.00;99747.78;5067322;28;20032;-58
2021/12/07 03:01:15;;;;;;;22.40;7.30;;;;;;;2.43;100.00;99754.00;5067294;28;20027;-58
2021/12/07 03:06:38;;;;;;;13.98;6.63;;;;;;;2.40;100.00;99767.06;5066983;27;20899;-58
2021/12/07 03:28:13;;;;;;;17.60;7.78;;;;;;;2.28;100.00;99793.28;5062540;28;20054;-58
2021/12/07 03:30:38;;;;;;;15.70;6.85;;;;;;;1.72;100.00;99702.38;5056777;28;20029;-58
2021/12/07 03:33:05;;;;;;;24.85;7.88;;;;;;;2.24;100.00;99792.50;5046940;28;20020;-58
2021/12/07 03:35:30;;;;;;;22.38;7.10;;;;;;;2.22;100.00;99801.22;5059349;28;20091;-58
2021/12/07 03:37:56;;;;;;;26.42;8.00;;;;;;;2.23;100.00;99802.94;5078894;27;20026;-57
2021/12/07 03:40:22;;;;;;;22.70;7.35;;;;;;;2.19;100.00;99812.53;5052870;27;20055;-58
2021/12/07 03:42:47;;;;;;;20.50;7.32;;;;;;;2.16;100.00;99814.34;5068376;27;20024;-57
2021/12/07 03:45:13;;;;;;;24.50;8.60;;;;;;;2.15;100.00;99823.84;5066334;28;20900;-57
2021/12/07 03:47:39;;;;;;;23.92;7.53;;;;;;;2.12;100.00;99821.34;5079005;27;20893;-57
2021/12/07 03:50:05;;;;;;;37.00;8.43;;;;;;;2.14;100.00;99829.06;5065268;28;20120;-58
2021/12/07 03:52:31;;;;;;;19.60;7.75;;;;;;;2.17;100.00;99834.16;5066717;28;20087;-57
2021/12/07 03:54:56;;;;;;;24.70;7.85;;;;;;;1.59;100.00;99733.78;5056800;28;20036;-58
2021/12/07 03:57:22;;;;;;;23.67;7.75;;;;;;;2.19;100.00;99840.19;5062479;28;20143;-57
2021/12/07 03:59:47;;;;;;;23.92;7.50;;;;;;;2.21;100.00;99838.38;5065870;28;20027;-57
2021/12/07 04:02:12;;;;;;;21.60;6.70;;;;;;;2.24;100.00;99831.38;5071891;27;20936;-58
2021/12/07 04:04:38;;;;;;;19.92;6.63;;;;;;;2.29;100.00;99839.06;5080961;27;20074;-58
2021/12/07 04:07:05;;;;;;;15.25;7.03;;;;;;;2.25;100.00;99832.25;5080425;27;20028;-58
2021/12/07 04:09:31;;;;;;;14.88;7.22;;;;;;;2.13;100.00;99838.56;5087543;27;20431;-58
2021/12/07 04:11:57;;;;;;;27.05;7.15;;;;;;;2.08;100.00;99844.78;5078833;28;20028;-57
2021/12/07 04:14:23;;;;;;;17.58;6.57;;;;;;;2.02;100.00;99850.97;5067242;28;20023;-57
2021/12/07 04:16:48;;;;;;;17.08;6.70;;;;;;;2.00;100.00;99848.41;5064661;28;20023;-57
2021/12/07 04:19:14;;;;;;;22.10;6.82;;;;;;;1.96;100.00;99872.66;5067329;28;20159;-57
2021/12/07 04:21:39;;;;;;;23.25;6.22;;;;;;;1.91;100.00;99864.16;5078480;28;20034;-57
2021/12/07 04:24:04;;;;;;;14.90;6.13;;;;;;;1.90;100.00;99866.78;5065511;28;20134;-57
2021/12/07 04:26:31;;;;;;;15.73;6.30;;;;;;;1.85;100.00;99873.81;5065804;28;20043;-57
2021/12/07 04:28:57;;;;;;;15.98;6.82;;;;;;;1.79;100.00;99869.63;5066490;28;20037;-57
2021/12/07 04:31:22;;;;;;;14.88;6.65;;;;;;;1.78;100.00;99872.25;5065569;28;20933;-58
2021/12/07 04:33:48;;;;;;;15.43;5.43;;;;;;;1.75;100.00;99893.06;5064680;28;20932;-58
2021/12/07 04:36:13;;;;;;;25.48;7.13;;;;;;;1.72;100.00;99899.16;5065631;28;20079;-57
2021/12/07 04:38:39;;;;;;;11.98;6.13;;;;;;;1.71;100.00;99886.22;5066608;28;20051;-57
2021/12/07 04:41:06;;;;;;;10.32;6.00;;;;;;;1.65;100.00;99876.03;5076531;28;20064;-57
2021/12/07 04:43:33;;;;;;;20.25;7.70;;;;;;;1.65;100.00;99891.56;5069215;28;20020;-58
2021/12/07 04:46:08;;;;;;;17.08;7.50;;;;;;;1.62;100.00;99879.53;5068673;28;20024;-57
2021/12/07 04:49:26;;;;;;;19.45;7.50;;;;;;;1.58;100.00;99890.84;5065317;28;20949;-58
2021/12/07 04:59:33;;;;;;;17.67;7.05;;;;;;;1.52;100.00;99916.88;5069508;28;20086;-58
2021/12/07 05:01:59;;;;;;;21.58;7.80;;;;;;;1.18;100.00;99864.97;5068906;28;20792;-57
2021/12/07 05:04:28;;;;;;;29.58;8.65;;;;;;;1.55;100.00;99917.63;5062061;28;20826;-57
2021/12/07 05:07:01;;;;;;;22.55;8.32;;;;;;;1.55;100.00;99912.44;5069832;28;20032;-57
2021/12/07 05:12:45;;;;;;;18.70;8.65;;;;;;;1.58;100.00;99921.06;5069317;28;20808;-57
2021/12/07 05:14:43;;;;;;;25.33;8.93;;;;;;;1.58;100.00;99929.66;5049009;28;20046;-57
2021/12/07 05:38:25;;;;;;;19.08;6.75;;;;;;;0.99;100.00;99876.56;5056040;27;20223;-57
2021/12/07 05:40:51;;;;;;;19.58;7.38;;;;;;;1.09;100.00;99906.53;5068252;28;20133;-57
2021/12/07 05:43:16;;;;;;;20.67;7.97;;;;;;;1.39;100.00;99956.81;5057143;27;20031;-57
2021/12/07 05:45:42;;;;;;;17.33;7.72;;;;;;;1.37;100.00;99966.34;5066979;28;20898;-58
2021/12/07 05:48:08;;;;;;;15.85;7.32;;;;;;;1.35;100.00;99965.53;5069096;28;20140;-57
2021/12/07 05:50:36;;;;;;;14.90;7.30;;;;;;;1.16;100.00;99939.16;5069124;28;20024;-56
2021/12/07 05:53:04;;;;;;;18.17;8.20;;;;;;;1.26;100.00;99963.97;5067541;28;20031;-56
2021/12/07 05:55:30;;;;;;;13.02;7.15;;;;;;;1.26;100.00;99973.47;5082552;27;20133;-56
2021/12/07 05:57:56;;;;;;;21.52;7.05;;;;;;;1.20;100.00;99973.59;5081273;27;20027;-56
2021/12/07 06:00:26;;;;;;;18.20;7.20;;;;;;;1.19;100.00;99974.44;5067937;28;20116;-56
2021/12/07 06:02:56;;;;;;;18.40;6.93;;;;;;;1.20;100.00;99976.16;5066106;27;20138;-56
2021/12/07 06:05:23;;;;;;;15.43;6.57;;;;;;;1.10;100.00;99979.81;5049026;28;20816;-56
2021/12/07 06:07:48;;;;;;;19.55;6.25;;;;;;;1.18;100.00;99990.88;5050771;28;20041;-56
2021/12/07 06:10:14;;;;;;;20.13;6.82;;;;;;;1.13;100.00;99995.28;5065608;28;20028;-57
2021/12/07 06:12:39;;;;;;;18.85;6.90;;;;;;;1.13;100.00;100003.03;5050407;28;20039;-57
2021/12/07 06:15:05;;;;;;;15.40;5.55;;;;;;;0.71;100.00;99930.50;5068007;28;20070;-57
2021/12/07 06:17:31;;;;;;;13.45;6.57;;;;;;;1.21;100.00;100006.34;5067076;28;20028;-57
2021/12/07 06:19:56;;;;;;;18.00;6.05;;;;;;;1.16;100.00;100005.56;5069021;28;20130;-57
2021/12/07 06:22:21;;;;;;;23.67;6.95;;;;;;;1.14;100.00;100009.91;5067156;28;20916;-57
2021/12/07 06:24:47;;;;;;;28.38;5.72;;;;;;;1.10;100.00;100013.44;5075199;27;20059;-57
2021/12/07 06:27:12;;;;;;;19.77;6.50;;;;;;;1.03;100.00;100016.13;5072919;27;20101;-57
2021/12/07 06:29:38;;;;;;;16.52;6.07;;;;;;;1.04;100.00;100027.34;5080158;27;20814;-57
2021/12/07 06:32:05;;;;;;;24.90;6.78;;;;;;;1.08;100.00;100017.81;5060509;28;20025;-57
2021/12/07 06:34:31;;;;;;;12.15;5.57;;;;;;;1.12;100.00;100019.41;5067610;28;20024;-57
2021/12/07 06:36:57;;;;;;;12.02;5.57;;;;;;;1.12;100.00;100016.84;5068555;27;20072;-57
2021/12/07 06:39:22;;;;;;;16.73;5.57;;;;;;;1.09;100.00;100019.47;5067399;28;20027;-57
2021/12/07 06:41:48;;;;;;;16.65;5.82;;;;;;;1.12;100.00;100016.84;5066460;28;20070;-57
2021/12/07 06:44:14;;;;;;;19.05;6.40;;;;;;;1.03;100.00;99999.75;5066530;28;20872;-57
2021/12/07 06:46:39;;;;;;;19.95;6.50;;;;;;;1.19;100.00;100016.72;5066811;28;20035;-57
2021/12/07 06:49:04;;;;;;;23.67;6.80;;;;;;;1.23;100.00;100020.09;5068026;27;20055;-57
2021/12/07 06:51:30;;;;;;;20.65;6.88;;;;;;;1.22;100.00;100015.78;5066562;28;20024;-57
2021/12/07 06:53:56;;;;;;;24.42;6.93;;;;;;;0.65;100.00;99909.94;5078961;27;20528;-57
2021/12/07 06:56:21;;;;;;;15.38;6.18;;;;;;;1.32;100.00;100020.75;5080168;27;20038;-57
2021/12/07 06:58:47;;;;;;;14.88;6.72;;;;;;;1.32;100.00;100007.00;5079515;27;20832;-57
2021/12/07 07:01:12;;;;;;;25.05;6.55;;;;;;;1.32;100.00;100012.19;5054767;28;20893;-57
2021/12/07 07:03:39;;;;;;;23.90;6.82;;;;;;;1.32;100.00;100018.19;5053093;28;20028;-57
2021/12/07 07:06:04;;;;;;;15.23;7.18;;;;;;;1.34;100.00;100010.41;5077546;27;20023;-57
2021/12/07 07:08:31;;;;;;;24.58;6.80;;;;;;;1.38;100.00;100014.63;5066052;28;20138;-57
2021/12/07 07:10:57;;;;;;;16.05;6.82;;;;;;;1.36;100.00;100011.22;5065941;28;20915;-57
2021/12/07 07:13:22;;;;;;;18.10;7.18;;;;;;;1.28;100.00;100016.56;5078114;27;20015;-57
2021/12/07 07:15:47;;;;;;;16.92;6.05;;;;;;;1.24;100.00;100019.22;5049250;28;20046;-57
2021/12/07 07:18:13;;;;;;;15.38;6.80;;;;;;;1.26;100.00;100017.44;5075772;27;20069;-56
2021/12/07 07:20:38;;;;;;;29.38;7.38;;;;;;;1.08;100.00;99997.09;5079139;27;20019;-57
2021/12/07 07:23:04;;;;;;;21.38;6.90;;;;;;;1.26;100.00;100017.44;5069368;27;20944;-57
2021/12/07 07:25:30;;;;;;;16.38;6.57;;;;;;;1.28;100.00;100015.69;5058046;28;20868;-57
2021/12/07 07:27:55;;;;;;;18.02;6.22;;;;;;;1.25;100.00;100013.16;5066646;27;20027;-57
2021/12/07 07:30:21;;;;;;;18.15;6.25;;;;;;;1.18;100.00;100019.34;5066095;28;20781;-56
2021/12/07 07:32:47;;;;;;;17.60;6.10;;;;;;;1.06;100.00;100017.81;5046504;28;20020;-57
2021/12/07 07:35:15;;;;;;;31.52;5.65;;;;;;;0.97;100.00;100026.59;5057556;28;20940;-57
2021/12/07 07:37:41;;;;;;;23.50;6.70;;;;;;;0.87;100.00;100025.06;5089397;27;20909;-57
2021/12/07 07:40:10;;;;;;;11.65;4.70;;;;;;;0.81;100.00;100025.13;5091078;27;20043;-57
2021/12/07 07:42:36;;;;;;;21.98;5.70;;;;;;;0.73;100.00;100020.97;5092437;27;20031;-57
2021/12/07 07:45:03;;;;;;;13.50;5.55;;;;;;;0.64;100.00;100027.16;5071552;27;20130;-57
2021/12/07 07:47:28;;;;;;;21.65;5.93;;;;;;;0.58;100.00;100027.25;5076096;27;20174;-57
2021/12/07 07:49:54;;;;;;;17.63;5.15;;;;;;;0.51;100.00;100020.47;5073941;27;20864;-57
2021/12/07 07:52:19;;;;;;;15.27;6.13;;;;;;;0.44;100.00;100005.97;5067993;28;20304;-57
2021/12/07 07:54:45;;;;;;;11.18;5.32;;;;;;;0.39;100.00;100006.03;5068081;28;20551;-57
2021/12/07 07:57:10;;;;;;;15.25;4.80;;;;;;;0.31;100.00;100007.00;5049871;28;20024;-57
2021/12/07 07:59:36;;;;;;;15.32;5.53;;;;;;;0.33;100.00;100013.00;5067493;28;20034;-57
2021/12/07 08:02:02;;;;;;;13.40;5.30;;;;;;;0.34;100.00;100023.31;5067006;28;20063;-57
2021/12/07 08:04:28;;;;;;;10.10;4.90;;;;;;;0.35;100.00;100021.59;5066997;28;20074;-57
2021/12/07 08:06:53;;;;;;;11.27;5.15;;;;;;;0.38;100.00;100029.28;5067597;28;20849;-57
2021/12/07 08:09:18;;;;;;;21.63;7.05;;;;;;;0.44;100.00;100034.38;5050289;28;20035;-58
2021/12/07 08:11:44;;;;;;;14.88;5.60;;;;;;;0.51;100.00;100036.81;5067510;28;20860;-56
2021/12/07 08:14:09;;;;;;;19.35;6.25;;;;;;;0.57;100.00;100032.44;5068005;28;20027;-57
2021/12/07 08:16:34;;;;;;;16.50;6.90;;;;;;;0.66;100.00;100034.88;5067110;28;20023;-57
2021/12/07 08:19:01;;;;;;;23.83;6.47;;;;;;;0.73;100.00;100045.09;5066798;28;20085;-57
2021/12/07 08:21:27;;;;;;;17.80;7.07;;;;;;;0.83;100.00;100044.09;5079780;28;20859;-57
2021/12/07 08:23:53;;;;;;;19.90;7.93;;;;;;;0.89;100.00;100040.53;5067116;28;20019;-57
2021/12/07 08:26:20;;;;;;;25.20;7.68;;;;;;;0.97;100.00;100047.28;5068555;28;20051;-57
2021/12/07 08:28:45;;;;;;;21.77;7.38;;;;;;;1.02;100.00;100045.47;5056362;28;20040;-56
2021/12/07 08:31:11;;;;;;;25.13;8.85;;;;;;;1.06;100.00;100055.75;5068988;28;20036;-57
2021/12/07 08:33:36;;;;;;;20.40;8.45;;;;;;;1.11;100.00;100057.41;5071715;28;20084;-57
2021/12/07 08:36:02;;;;;;;17.55;8.77;;;;;;;1.14;100.00;100059.06;5071263;28;20024;-57
2021/12/07 08:38:28;;;;;;;18.90;8.30;;;;;;;1.15;100.00;100050.44;5066246;28;20020;-57
2021/12/07 08:40:54;;;;;;;31.27;8.57;;;;;;;1.16;100.00;100054.72;5060985;27;20960;-57
2021/12/07 08:43:21;;;;;;;28.60;9.63;;;;;;;1.16;100.00;100059.88;5080285;27;20805;-57
2021/12/07 08:45:47;;;;;;;23.35;9.00;;;;;;;1.01;100.00;100033.41;5072638;27;20023;-57
2021/12/07 08:48:13;;;;;;;23.02;8.23;;;;;;;1.16;100.00;100052.97;5068162;28;20949;-57
2021/12/07 08:50:38;;;;;;;32.03;9.13;;;;;;;1.18;100.00;100048.66;5060234;27;20023;-57
2021/12/07 08:53:07;;;;;;;29.05;8.82;;;;;;;1.20;100.00;100030.50;5079637;27;20898;-57
2021/12/07 09:01:02;;;;;;;20.58;8.93;;;;;;;1.26;100.00;100027.78;5057074;28;20042;-57
2021/12/07 09:03:28;;;;;;;17.13;8.65;;;;;;;1.27;100.00;100025.19;5049592;28;20032;-57
2021/12/07 09:05:54;;;;;;;22.90;9.00;;;;;;;1.29;100.00;100013.06;5055375;28;20131;-57
2021/12/07 09:08:19;;;;;;;19.65;8.27;;;;;;;1.35;100.00;100012.13;5060523;27;20858;-58
2021/12/07 09:10:45;;;;;;;26.70;7.95;;;;;;;1.42;100.00;100005.94;5086521;27;20870;-58
2021/12/07 09:13:10;;;;;;;17.70;7.88;;;;;;;1.00;100.00;99933.44;5068869;27;20020;-58
2021/12/07 09:15:37;;;;;;;22.60;7.93;;;;;;;1.37;100.00;99987.91;5083256;27;20023;-56
2021/12/07 09:18:03;;;;;;;18.10;7.60;;;;;;;1.56;100.00;99996.13;5084850;27;20176;-56
2021/12/07 09:20:29;;;;;;;25.33;7.10;;;;;;;1.59;100.00;100000.44;5084782;27;20084;-58
2021/12/07 09:22:55;;;;;;;14.45;6.65;;;;;;;1.59;100.00;99990.91;5069146;28;20044;-58
2021/12/07 09:25:21;;;;;;;19.33;6.88;;;;;;;1.63;100.00;100000.31;5072330;28;20549;-58
2021/12/07 09:27:46;;;;;;;20.13;6.60;;;;;;;1.67;100.00;100008.88;5079582;28;20116;-58
2021/12/07 09:30:14;;;;;;;26.80;7.53;;;;;;;1.73;100.00;100009.59;5067097;28;20027;-58
2021/12/07 09:32:40;;;;;;;13.70;6.68;;;;;;;1.71;100.00;100001.03;5053524;28;20055;-58
2021/12/07 09:35:07;;;;;;;19.02;6.72;;;;;;;1.75;100.00;99994.91;5062164;28;20030;-58
2021/12/07 09:37:33;;;;;;;21.80;7.63;;;;;;;1.78;100.00;100000.00;5042713;28;20023;-58
2021/12/07 09:39:59;;;;;;;14.80;6.60;;;;;;;1.85;100.00;100003.31;5067073;28;20055;-58
2021/12/07 09:42:24;;;;;;;19.45;6.35;;;;;;;1.90;100.00;100004.91;5066883;28;20076;-58
2021/12/07 09:44:50;;;;;;;14.73;5.97;;;;;;;1.94;100.00;100003.97;5067240;28;20138;-58
2021/12/07 09:47:15;;;;;;;22.70;6.07;;;;;;;1.97;100.00;100001.31;5076831;28;20035;-58
2021/12/07 09:49:40;;;;;;;13.93;5.80;;;;;;;2.03;100.00;99996.00;5070808;28;20024;-58
2021/12/07 09:52:06;;;;;;;13.15;6.40;;;;;;;1.62;100.00;99918.38;5079825;28;20023;-58
2021/12/07 09:54:31;;;;;;;19.65;5.63;;;;;;;2.18;100.00;100002.56;5065104;28;20035;-58
2021/12/07 09:56:57;;;;;;;16.88;5.38;;;;;;;2.27;100.00;99991.13;5066195;28;20054;-58
2021/12/07 09:59:22;;;;;;;17.42;6.22;;;;;;;2.19;100.00;99967.16;5068238;28;20035;-58
2021/12/07 10:01:48;;;;;;;24.88;5.88;;;;;;;2.38;100.00;99994.34;5085691;28;20038;-58
2021/12/07 10:04:14;;;;;;;23.73;6.22;;;;;;;2.44;100.00;99997.63;5073516;28;20062;-58
2021/12/07 10:06:39;;;;;;;13.27;5.65;;;;;;;2.50;100.00;99989.69;5066930;28;20450;-58
2021/12/07 10:09:05;;;;;;;10.05;4.63;;;;;;;2.57;100.00;99990.41;5067579;28;20820;-58
2021/12/07 10:11:31;;;;;;;14.38;5.35;;;;;;;2.64;100.00;99981.59;5068870;28;20797;-58
2021/12/07 10:13:57;;;;;;;12.88;5.63;;;;;;;2.71;100.00;99971.91;5067538;28;20139;-58
2021/12/07 10:16:23;;;;;;;21.92;5.68;;;;;;;2.72;100.00;99969.28;5067870;28;20134;-58
2021/12/07 10:18:49;;;;;;;23.42;6.15;;;;;;;2.66;100.00;99953.91;5070759;28;20032;-58
2021/12/07 10:21:27;;;;;;;24.48;4.93;;;;;;;2.86;100.00;99968.94;5025230;27;1492950;-58
2021/12/07 10:24:06;;;;;;;17.27;5.35;;;;;;;2.87;100.00;99971.47;5069506;27;20404;-58
2021/12/07 10:26:36;;;;;;;15.77;4.63;;;;;;;2.95;100.00;99966.09;5075348;27;20015;-58
2021/12/07 10:29:17;;;;;;;14.48;4.53;;;;;;;3.03;100.00;99958.97;5073890;27;20819;-58
2021/12/07 10:31:49;;;;;;;16.58;5.15;;;;;;;3.12;100.00;99952.66;5062281;28;20032;-58
2021/12/07 10:34:23;;;;;;;13.23;4.60;;;;;;;3.18;100.00;99942.16;5041891;28;20071;-58
2021/12/07 10:36:56;;;;;;;11.32;4.32;;;;;;;2.97;100.00;99897.69;5064859;28;20055;-58
2021/12/07 10:39:22;;;;;;;20.60;4.40;;;;;;;3.30;100.00;99923.63;5067741;28;20215;-58
2021/12/07 10:41:49;;;;;;;25.73;5.00;;;;;;;3.33;100.00;99915.75;5049965;28;20857;-58
2021/12/07 10:44:17;;;;;;;12.48;4.03;;;;;;;3.40;100.00;99912.06;5054040;28;20065;-58
2021/12/07 10:46:44;;;;;;;10.40;4.32;;;;;;;3.44;100.00;99900.72;5080941;27;20584;-58
2021/12/07 10:49:29;;;;;;;17.23;4.50;;;;;;;3.49;100.00;99904.00;5068898;27;20066;-59
2021/12/07 10:52:02;;;;;;;18.42;4.10;;;;;;;3.54;100.00;99897.81;5067243;28;20435;-59
2021/12/07 10:54:30;;;;;;;9.23;3.88;;;;;;;3.61;100.00;99901.06;5067943;28;20065;-59
2021/12/07 10:56:58;;;;;;;9.18;3.30;;;;;;;3.46;100.00;99855.63;5068135;28;20027;-58
2021/12/07 10:59:24;;;;;;;9.27;4.47;;;;;;;3.66;100.00;99877.53;5080157;27;20027;-57
2021/12/07 11:01:50;;;;;;;9.18;3.97;;;;;;;3.79;100.00;99879.72;5077619;27;20034;-57
2021/12/07 11:04:33;;;;;;;10.60;3.35;;;;;;;3.84;100.00;99875.22;5069508;27;20127;-57
2021/12/07 11:07:08;;;;;;;10.75;3.67;;;;;;;3.87;100.00;99862.13;5075710;27;20032;-57
2021/12/07 11:09:38;;;;;;;14.18;4.32;;;;;;;3.93;100.00;99846.34;5061468;28;20076;-57
2021/12/07 11:12:09;;;;;;;13.23;3.65;;;;;;;3.96;100.00;99841.03;5076542;27;21034;-57
2021/12/07 11:14:52;;;;;;;17.80;3.88;;;;;;;4.02;100.00;99851.22;5062075;28;20061;-57
2021/12/07 11:17:23;;;;;;;11.30;4.07;;;;;;;4.06;100.00;99850.25;5061198;28;20023;-57
2021/12/07 11:19:50;;;;;;;12.38;3.70;;;;;;;4.10;100.00;99853.59;5061417;28;20036;-57
2021/12/07 11:22:17;;;;;;;7.95;3.67;;;;;;;4.13;100.00;99846.53;5060052;28;20036;-57
2021/12/07 11:24:44;;;;;;;13.55;4.35;;;;;;;4.16;100.00;99857.75;5067101;27;20128;-57
2021/12/07 11:30:07;;;;;;;16.58;3.45;;;;;;;4.23;100.00;99843.63;5055698;28;20103;-57
2021/12/07 11:32:33;;;;;;;6.88;3.05;;;;;;;4.29;100.00;99846.06;5053518;28;20024;-57
2021/12/07 11:35:33;;;;;;;12.70;4.13;;;;;;;4.31;100.00;99841.63;5065731;28;20905;-57
2021/12/07 11:38:00;;;;;;;9.30;3.67;;;;;;;4.43;100.00;99839.47;5041825;28;20379;-57
2021/12/07 11:40:44;;;;;;;16.88;4.20;;;;;;;4.94;100.00;99838.53;5066659;28;20039;-57
2021/12/07 11:43:17;;;;;;;10.43;3.50;;;;;;;5.30;100.00;99845.00;5066450;28;20032;-57
2021/12/07 11:45:44;;;;;;;13.75;3.88;;;;;;;5.49;100.00;99838.19;5072407;27;20019;-57
2021/12/07 11:48:09;;;;;;;9.25;3.28;;;;;;;5.40;100.00;99837.69;5084354;27;20833;-57
2021/12/07 11:50:37;;;;;;;7.07;3.08;;;;;;;5.24;100.00;99839.19;5054383;27;20039;-57
2021/12/07 11:53:06;;;;;;;10.85;3.25;;;;;;;5.16;100.00;99834.25;5066215;28;20028;-57
2021/12/07 11:55:35;;;;;;;6.22;2.45;;;;;;;5.05;100.00;99811.22;5066320;28;20108;-57
2021/12/07 11:58:00;;;;;;;8.98;3.30;;;;;;;5.22;100.00;99823.59;5066065;28;20028;-57
2021/12/07 12:00:34;;;;;;;8.15;3.15;;;;;;;5.31;100.00;99827.59;5067660;28;20248;-57
2021/12/07 12:03:05;;;;;;;8.18;2.70;;;;;;;5.33;100.00;99821.44;5074063;27;20030;-57
2021/12/07 12:05:30;;;;;;;8.07;3.28;;;;;;;5.36;100.00;99820.47;5071416;27;20073;-57
2021/12/07 12:07:56;;;;;;;9.38;3.50;;;;;;;5.20;100.00;99777.69;5065933;28;20848;-57
2021/12/07 12:10:22;;;;;;;7.55;3.20;;;;;;;5.46;100.00;99816.59;5048548;28;20028;-57
2021/12/07 12:13:09;;;;;;;14.60;3.67;;;;;;;5.45;100.00;99810.53;5053341;28;20055;-57
2021/12/07 12:15:54;;;;;;;9.50;2.72;;;;;;;5.49;100.00;99806.06;5065174;28;20268;-57
2021/12/07 12:18:35;;;;;;;9.13;3.15;;;;;;;5.50;100.00;99797.34;5065739;28;20162;-57
2021/12/07 12:21:24;;;;;;;6.78;2.78;;;;;;;5.51;100.00;99788.59;5066395;28;20143;-57
2021/12/07 12:24:16;;;;;;;7.95;2.47;;;;;;;5.43;100.00;99768.09;5044589;28;20032;-57
2021/12/07 12:26:45;;;;;;;10.95;2.22;;;;;;;5.54;100.00;99775.47;5078357;28;20020;-57
2021/12/07 12:29:17;;;;;;;8.68;2.38;;;;;;;5.49;100.00;99761.75;5064815;28;20984;-57
2021/12/07 12:31:56;;;;;;;7.20;2.78;;;;;;;5.48;100.00;99752.25;5065653;28;20028;-57
2021/12/07 12:34:24;;;;;;;9.70;2.58;;;;;;;5.46;100.00;99748.88;5065250;28;20031;-57
2021/12/07 12:36:54;;;;;;;11.05;3.00;;;;;;;5.43;100.00;99747.25;5058255;28;20925;-58
2021/12/07 12:39:22;;;;;;;6.45;2.72;;;;;;;5.39;100.00;99743.06;5062076;28;20073;-58
2021/12/07 12:41:59;;;;;;;9.23;2.25;;;;;;;5.28;100.00;99723.53;5047550;28;20059;-58
2021/12/07 12:44:26;;;;;;;8.32;2.58;;;;;;;5.35;100.00;99735.41;5082268;28;20023;-58
2021/12/07 12:46:59;;;;;;;7.57;2.58;;;;;;;5.33;100.00;99729.44;5069829;28;20100;-58
2021/12/07 12:49:36;;;;;;;16.48;2.90;;;;;;;5.33;100.00;99729.44;5066527;28;20226;-58
2021/12/07 12:52:02;;;;;;;7.82;2.92;;;;;;;5.35;100.00;99723.25;5064487;28;20385;-58
2021/12/07 12:54:38;;;;;;;10.30;2.47;;;;;;;5.36;100.00;99708.47;5079521;28;20096;-58
2021/12/07 12:57:17;;;;;;;7.90;2.38;;;;;;;5.35;100.00;99698.94;5063424;28;20043;-58
2021/12/07 12:59:45;;;;;;;9.95;2.92;;;;;;;5.33;100.00;99696.41;5057832;28;20127;-58
2021/12/07 13:02:12;;;;;;;10.57;2.47;;;;;;;5.27;100.00;99680.19;5064610;28;20038;-58
2021/12/07 13:04:38;;;;;;;5.57;2.03;;;;;;;5.41;100.00;99677.84;5061585;28;20035;-58
2021/12/07 13:09:44;;;;;;;6.53;2.78;;;;;;;5.49;100.00;99650.59;5065158;28;20142;-58
2021/12/07 13:12:22;;;;;;;14.43;2.88;;;;;;;5.50;100.00;99635.81;5064164;28;20028;-58